Time;durP1;ratioP1;P1;durP2;ratioP2;P2;SDS_P1;SDS_P2;PMS_P1;PMS_P2;Temp;Humidity;BMP_temperature;BMP_pressure;BME280_temperature;BME280_humidity;BME280_pressure;Samples;Min_cycle;Max_cycle;Signal;HPM_P1;HPM_P2
2024/02/29 00:01:05;;;;;;;56.20;18.20;;;;;;;7.65;49.38;100969.79;108081;1253;60937;-65
2024/02/29 00:03:33;;;;;;;54.10;18.90;;;;;;;7.66;49.61;100971.54;108227;1253;60326;-68
2024/02/29 00:06:00;;;;;;;62.80;19.20;;;;;;;7.65;49.48;100975.91;108065;1257;60370;-65
2024/02/29 00:08:27;;;;;;;53.60;18.00;;;;;;;7.62;49.43;100973.33;108086;1258;70786;-67
2024/02/29 00:10:53;;;;;;;45.70;16.00;;;;;;;7.58;49.62;100973.90;108089;1256;72690;-67
2024/02/29 00:13:21;;;;;;;48.60;16.00;;;;;;;7.59;49.46;100973.36;108147;1254;58975;-67
2024/02/29 00:15:47;;;;;;;41.40;15.60;;;;;;;7.68;49.00;100975.18;108092;1254;60281;-66
2024/02/29 00:18:14;;;;;;;41.30;13.90;;;;;;;7.71;49.18;100972.35;108158;1253;73860;-67
2024/02/29 00:20:41;;;;;;;55.10;15.00;;;;;;;7.71;48.79;100970.24;108123;1259;70290;-67
2024/02/29 00:23:08;;;;;;;49.80;18.00;;;;;;;7.73;48.90;100973.02;108165;1257;72801;-67
2024/02/29 00:25:35;;;;;;;58.60;16.50;;;;;;;7.79;48.72;100972.61;108146;1253;60565;-67
2024/02/29 00:28:02;;;;;;;48.90;16.90;;;;;;;7.89;48.56;100968.11;108131;1254;60537;-66
2024/02/29 00:30:29;;;;;;;44.90;16.00;;;;;;;7.85;48.48;100966.23;108082;1253;73806;-66
2024/02/29 00:32:55;;;;;;;44.60;16.40;;;;;;;7.73;48.67;100968.14;108115;1254;70143;-65
2024/02/29 00:35:24;;;;;;;51.00;16.30;;;;;;;7.79;48.45;100965.62;108089;1254;72914;-67
2024/02/29 00:37:51;;;;;;;58.40;16.70;;;;;;;7.82;48.59;100971.34;108030;1257;61379;-68
2024/02/29 00:40:18;;;;;;;54.70;15.40;;;;;;;7.94;48.35;100970.16;108047;1254;60368;-67
2024/02/29 00:42:44;;;;;;;59.20;16.10;;;;;;;7.73;48.65;100970.58;108114;1254;74066;-65
2024/02/29 00:45:11;;;;;;;48.70;16.00;;;;;;;7.60;48.92;100968.96;108075;1254;70069;-66
2024/02/29 00:47:38;;;;;;;39.80;15.60;;;;;;;7.67;48.87;100967.32;108063;1255;73053;-67
2024/02/29 00:50:07;;;;;;;45.80;16.20;;;;;;;7.66;48.92;100965.24;108055;1253;60862;-66
2024/02/29 00:52:33;;;;;;;42.50;14.60;;;;;;;7.67;48.88;100967.16;108075;1254;60387;-67
2024/02/29 00:55:02;;;;;;;44.20;15.10;;;;;;;7.82;48.63;100961.55;108083;1254;74323;-66
2024/02/29 00:57:29;;;;;;;45.20;15.40;;;;;;;7.89;48.34;100959.38;108066;1254;70428;-67
2024/02/29 00:59:55;;;;;;;51.40;16.00;;;;;;;7.97;48.08;100961.54;108041;1254;73221;-67
2024/02/29 01:02:22;;;;;;;46.70;15.00;;;;;;;7.94;48.21;100961.41;107976;1254;60364;-67
2024/02/29 01:04:48;;;;;;;38.00;12.80;;;;;;;7.92;48.21;100958.45;108053;1254;60196;-66
2024/02/29 01:07:15;;;;;;;38.90;14.60;;;;;;;7.94;48.04;100956.33;108002;1254;73905;-67
2024/02/29 01:09:42;;;;;;;49.90;14.60;;;;;;;7.98;47.91;100954.89;107987;1254;69151;-67
2024/02/29 01:12:08;;;;;;;39.20;14.30;;;;;;;7.92;48.02;100954.96;108014;1254;72824;-67
2024/02/29 01:14:35;;;;;;;38.40;13.50;;;;;;;7.91;47.97;100953.41;108032;1254;61266;-68
2024/02/29 01:17:02;;;;;;;50.20;14.70;;;;;;;7.67;48.42;100949.67;108018;1257;60403;-68
2024/02/29 01:19:29;;;;;;;39.60;14.30;;;;;;;7.98;47.94;100951.22;108083;1253;73833;-67
2024/02/29 01:21:55;;;;;;;37.40;13.90;;;;;;;7.91;47.99;100950.44;107999;1254;70320;-67
2024/02/29 01:24:24;;;;;;;32.10;10.80;;;;;;;7.91;47.89;100952.38;107996;1254;60501;-66
2024/02/29 01:26:51;;;;;;;36.00;14.40;;;;;;;7.95;47.88;100952.82;108050;1254;60992;-67
2024/02/29 01:29:17;;;;;;;36.60;13.50;;;;;;;7.86;48.01;100953.46;108046;1254;60340;-67
2024/02/29 01:31:44;;;;;;;37.40;12.50;;;;;;;7.90;47.84;100951.67;108048;1254;74221;-67
2024/02/29 01:34:11;;;;;;;31.20;12.40;;;;;;;7.93;47.80;100949.88;108037;1256;70765;-68
2024/02/29 01:36:37;;;;;;;35.50;13.20;;;;;;;7.85;47.98;100949.11;108090;1253;72471;-67
2024/02/29 01:39:04;;;;;;;41.20;13.30;;;;;;;7.89;47.98;100945.91;108095;1254;61039;-66
2024/02/29 01:41:31;;;;;;;45.60;14.10;;;;;;;7.77;48.33;100943.96;108061;1253;60419;-67
2024/02/29 01:43:57;;;;;;;44.60;13.00;;;;;;;7.77;48.30;100942.03;108060;1253;74524;-67
2024/02/29 01:46:24;;;;;;;43.10;13.50;;;;;;;7.72;48.55;100948.39;108176;1253;70196;-67
2024/02/29 01:48:50;;;;;;;29.80;13.10;;;;;;;7.69;48.34;100944.05;108060;1253;73175;-67
2024/02/29 01:51:17;;;;;;;42.60;12.50;;;;;;;7.83;48.31;100947.04;108088;1253;61012;-66
2024/02/29 01:53:44;;;;;;;40.90;12.10;;;;;;;7.79;48.28;100940.27;108189;1253;60222;-67
2024/02/29 01:56:12;;;;;;;35.10;13.70;;;;;;;7.93;48.04;100942.36;108099;1252;61195;-67
2024/02/29 01:58:39;;;;;;;36.50;13.10;;;;;;;7.89;48.02;100938.92;108143;1253;70488;-67
2024/02/29 02:01:05;;;;;;;36.20;13.60;;;;;;;7.85;48.06;100940.38;108144;1253;72482;-67
2024/02/29 02:03:32;;;;;;;52.80;14.10;;;;;;;7.85;47.92;100940.37;108086;1253;60401;-67
2024/02/29 02:05:59;;;;;;;40.90;14.10;;;;;;;7.75;48.31;100937.52;108042;1253;60292;-66
2024/02/29 02:08:29;;;;;;;35.80;11.70;;;;;;;7.79;48.16;100940.10;108209;1254;72955;-67
2024/02/29 02:10:57;;;;;;;37.00;12.80;;;;;;;7.77;48.50;100940.83;108081;1253;71000;-67
2024/02/29 02:13:24;;;;;;;41.50;13.80;;;;;;;7.96;48.03;100945.64;108098;1254;73447;-66
2024/02/29 02:15:51;;;;;;;43.40;16.00;;;;;;;7.95;48.19;100944.95;108123;1253;61326;-66
2024/02/29 02:18:17;;;;;;;39.10;12.40;;;;;;;7.93;48.10;100949.17;108102;1253;60442;-65
2024/02/29 02:20:44;;;;;;;31.80;11.10;;;;;;;7.78;48.37;100945.52;108079;1252;73668;-66
2024/02/29 02:23:10;;;;;;;37.20;11.90;;;;;;;7.81;48.43;100946.52;108062;1253;70828;-66
2024/02/29 02:25:37;;;;;;;42.60;12.40;;;;;;;7.63;48.71;100949.37;108068;1252;73138;-67
2024/02/29 02:28:04;;;;;;;48.70;12.50;;;;;;;7.74;48.47;100948.02;108057;1253;59805;-66
2024/02/29 02:30:31;;;;;;;35.00;11.50;;;;;;;7.77;48.42;100946.41;108076;1252;60397;-65
2024/02/29 02:32:58;;;;;;;36.70;11.90;;;;;;;7.82;48.42;100946.52;108113;1252;73915;-67
2024/02/29 02:35:25;;;;;;;33.90;11.40;;;;;;;7.96;48.11;100945.30;108018;1254;69059;-66
2024/02/29 02:37:51;;;;;;;28.30;9.20;;;;;;;8.00;47.95;100940.35;107961;1254;71309;-66
2024/02/29 02:40:19;;;;;;;25.00;10.00;;;;;;;7.98;48.00;100935.48;108033;1254;60862;-66
2024/02/29 02:42:45;;;;;;;26.50;9.30;;;;;;;7.96;48.00;100931.83;108091;1254;60291;-67
2024/02/29 02:45:12;;;;;;;32.40;9.90;;;;;;;7.76;48.52;100934.19;108050;1254;73338;-65
2024/02/29 02:47:39;;;;;;;31.00;9.50;;;;;;;7.86;48.55;100935.98;108060;1254;70764;-65
2024/02/29 02:50:06;;;;;;;25.60;10.90;;;;;;;7.74;48.57;100935.77;108108;1257;72474;-67
2024/02/29 02:52:33;;;;;;;38.10;11.90;;;;;;;7.76;48.62;100931.39;108043;1254;60892;-66
2024/02/29 02:55:00;;;;;;;34.90;12.20;;;;;;;7.77;48.80;100935.92;108043;1253;60422;-66
2024/02/29 02:57:27;;;;;;;31.40;11.30;;;;;;;7.61;48.86;100942.58;108103;1254;74286;-66
2024/02/29 02:59:53;;;;;;;38.20;11.30;;;;;;;7.66;48.95;100945.30;108001;1253;70921;-66
2024/02/29 03:02:20;;;;;;;31.30;11.10;;;;;;;7.54;49.44;100945.98;107986;1254;73070;-68
2024/02/29 03:04:47;;;;;;;40.30;13.00;;;;;;;7.58;49.21;100948.03;108018;1254;61185;-67
2024/02/29 03:07:13;;;;;;;25.50;11.10;;;;;;;7.91;48.57;100944.30;108010;1254;60694;-66
2024/02/29 03:09:40;;;;;;;36.10;11.60;;;;;;;7.90;48.45;100940.30;107975;1254;73738;-68
2024/02/29 03:12:07;;;;;;;37.00;11.70;;;;;;;7.74;48.97;100944.34;108047;1254;70271;-66
2024/02/29 03:14:34;;;;;;;28.60;9.80;;;;;;;7.69;48.92;100945.80;108004;1254;72471;-67
2024/02/29 03:17:00;;;;;;;28.30;10.00;;;;;;;7.49;49.35;100947.27;108027;1254;60476;-67
2024/02/29 03:19:27;;;;;;;36.20;12.70;;;;;;;7.38;49.73;100942.48;108050;1254;59996;-66
2024/02/29 03:21:54;;;;;;;39.80;11.00;;;;;;;7.50;49.53;100939.91;108050;1254;73670;-65
2024/02/29 03:24:21;;;;;;;37.70;11.20;;;;;;;7.30;49.87;100941.34;108012;1254;70919;-66
2024/02/29 03:26:48;;;;;;;41.80;11.20;;;;;;;7.36;49.95;100934.98;107996;1254;72675;-66
2024/02/29 03:29:14;;;;;;;24.70;10.10;;;;;;;7.24;50.12;100937.05;107968;1254;60971;-67
2024/02/29 03:31:44;;;;;;;25.10;7.50;;;;;;;7.17;50.33;100933.29;108045;1256;60595;-67
2024/02/29 03:34:11;;;;;;;29.50;10.90;;;;;;;7.01;50.71;100936.06;108092;1257;72753;-65
2024/02/29 03:36:38;;;;;;;37.80;12.50;;;;;;;7.06;50.64;100933.73;108145;1253;70273;-66
2024/02/29 03:39:05;;;;;;;28.70;10.20;;;;;;;7.32;50.21;100929.81;108043;1253;73258;-66
2024/02/29 03:41:32;;;;;;;34.10;9.20;;;;;;;7.25;50.25;100930.92;108011;1253;61162;-65
2024/02/29 03:43:59;;;;;;;33.70;13.20;;;;;;;7.33;50.00;100934.69;108118;1253;59994;-66
2024/02/29 03:46:26;;;;;;;37.10;11.20;;;;;;;7.44;49.77;100930.71;108098;1253;72609;-66
2024/02/29 03:48:53;;;;;;;31.90;12.80;;;;;;;7.42;49.69;100933.20;108036;1253;70890;-66
2024/02/29 03:51:19;;;;;;;37.90;13.10;;;;;;;7.50;49.64;100937.29;108076;1254;72668;-67
2024/02/29 03:53:46;;;;;;;34.20;11.50;;;;;;;7.34;49.91;100940.09;108082;1256;61134;-67
2024/02/29 03:56:13;;;;;;;34.50;11.60;;;;;;;7.27;50.33;100938.59;108095;1253;60348;-65
2024/02/29 03:58:39;;;;;;;34.80;12.30;;;;;;;7.29;50.23;100936.13;108055;1253;74753;-67
2024/02/29 04:01:10;;;;;;;38.60;11.20;;;;;;;7.20;50.41;100941.45;108064;1253;70281;-66
2024/02/29 04:03:40;;;;;;;37.70;12.50;;;;;;;7.17;50.78;100940.45;108042;1253;72962;-66
2024/02/29 04:06:07;;;;;;;29.10;11.10;;;;;;;7.24;50.53;100939.15;108056;1253;61045;-66
2024/02/29 04:08:35;;;;;;;30.10;11.10;;;;;;;7.08;50.69;100943.33;108066;1253;60330;-67
2024/02/29 04:11:02;;;;;;;35.80;13.00;;;;;;;7.06;50.93;100945.63;108054;1253;73794;-66
2024/02/29 04:13:29;;;;;;;30.20;11.70;;;;;;;7.08;50.94;100946.64;108074;1253;70109;-66
2024/02/29 04:15:55;;;;;;;36.00;12.70;;;;;;;7.01;51.03;100953.70;108170;1253;72506;-64
2024/02/29 04:18:22;;;;;;;34.10;12.10;;;;;;;6.91;51.13;100959.37;108185;1253;60982;-67
2024/02/29 04:20:50;;;;;;;28.30;11.50;;;;;;;6.91;51.41;100962.17;108142;1253;60499;-66
2024/02/29 04:23:17;;;;;;;35.10;11.60;;;;;;;6.80;51.59;100964.18;108135;1253;73903;-65
2024/02/29 04:25:45;;;;;;;39.70;12.00;;;;;;;6.64;51.95;100962.54;108120;1253;70098;-68
2024/02/29 04:28:12;;;;;;;29.10;11.50;;;;;;;6.67;52.08;100962.54;108106;1252;72764;-65
2024/02/29 04:30:39;;;;;;;34.20;11.10;;;;;;;6.66;52.17;100964.29;108143;1253;60451;-66
2024/02/29 04:33:06;;;;;;;28.90;11.20;;;;;;;6.57;52.51;100961.20;108060;1253;60263;-67
2024/02/29 04:35:33;;;;;;;42.00;11.40;;;;;;;6.61;52.25;100960.48;108047;1254;73801;-69
2024/02/29 04:38:00;;;;;;;26.80;10.70;;;;;;;6.52;52.55;100960.55;108041;1254;70138;-67
2024/02/29 04:40:26;;;;;;;30.20;10.80;;;;;;;6.39;52.89;100963.95;108045;1254;59555;-66
2024/02/29 04:42:53;;;;;;;37.80;10.40;;;;;;;6.45;52.99;100968.98;108044;1254;61178;-66
2024/02/29 04:45:23;;;;;;;23.10;10.60;;;;;;;6.43;52.71;100974.91;108090;1254;60339;-66
2024/02/29 04:47:51;;;;;;;36.30;12.60;;;;;;;6.63;52.37;100975.64;108061;1254;74125;-67
2024/02/29 04:50:18;;;;;;;34.50;11.30;;;;;;;6.55;52.54;100971.69;108037;1254;70554;-67
2024/02/29 04:52:45;;;;;;;32.70;11.60;;;;;;;6.60;52.32;100970.96;107959;1254;73189;-66
2024/02/29 04:55:12;;;;;;;27.70;10.50;;;;;;;6.67;52.36;100975.62;108013;1254;60916;-66
2024/02/29 04:57:38;;;;;;;29.00;11.60;;;;;;;6.36;53.01;100975.98;108026;1253;60351;-67
2024/02/29 05:00:07;;;;;;;36.00;11.80;;;;;;;6.20;53.57;100975.23;107991;1254;74207;-67
2024/02/29 05:02:34;;;;;;;33.10;11.50;;;;;;;6.28;53.45;100969.25;108021;1254;69118;-68
2024/02/29 05:05:00;;;;;;;31.70;12.00;;;;;;;6.31;53.24;100975.34;107949;1254;73300;-66
2024/02/29 05:07:27;;;;;;;36.20;13.00;;;;;;;6.44;52.97;100974.03;107973;1254;61102;-66
2024/02/29 05:09:54;;;;;;;37.00;12.00;;;;;;;6.38;53.07;100980.86;108060;1254;60407;-68
2024/02/29 05:12:22;;;;;;;34.20;11.90;;;;;;;6.45;52.96;100980.13;108038;1254;73815;-67
2024/02/29 05:14:49;;;;;;;28.50;10.80;;;;;;;6.60;52.71;100981.09;108057;1254;70109;-67
2024/02/29 05:17:15;;;;;;;33.40;12.20;;;;;;;6.51;52.66;100984.09;107986;1254;71263;-67
2024/02/29 05:19:42;;;;;;;33.60;11.60;;;;;;;6.50;52.79;100986.20;108040;1254;60523;-66
2024/02/29 05:22:08;;;;;;;37.00;12.60;;;;;;;6.53;52.73;100989.84;108102;1254;60317;-66
2024/02/29 05:24:35;;;;;;;32.20;10.90;;;;;;;6.54;52.65;100985.30;108074;1254;74237;-67
2024/02/29 05:27:02;;;;;;;37.80;13.10;;;;;;;6.58;52.68;100985.63;108060;1254;71156;-67
2024/02/29 05:29:29;;;;;;;33.10;12.40;;;;;;;6.54;52.29;100987.23;108065;1257;73065;-66
2024/02/29 05:31:56;;;;;;;34.30;13.00;;;;;;;6.57;52.30;100986.67;108083;1254;60967;-67
2024/02/29 05:34:26;;;;;;;27.00;10.70;;;;;;;6.64;51.93;100983.31;108111;1253;60335;-67
2024/02/29 05:36:52;;;;;;;33.50;12.40;;;;;;;6.79;51.74;100979.89;108093;1253;73740;-67
2024/02/29 05:39:20;;;;;;;34.40;12.60;;;;;;;6.95;51.18;100979.25;108087;1253;69693;-67
2024/02/29 05:41:47;;;;;;;28.80;11.40;;;;;;;6.79;51.40;100980.23;108050;1253;72479;-67
2024/02/29 05:44:13;;;;;;;46.10;11.20;;;;;;;6.84;51.01;100984.04;108094;1253;60408;-66
2024/02/29 05:46:40;;;;;;;25.80;10.30;;;;;;;6.87;50.76;100978.60;108126;1253;60429;-67
2024/02/29 05:49:07;;;;;;;30.70;10.40;;;;;;;7.09;50.35;100975.98;108255;1255;60444;-67
2024/02/29 05:54:45;;;;;;;31.20;9.60;;;;;;;6.01;52.87;100982.14;104915;1289;601880;-68
2024/02/29 05:57:12;;;;;;;26.40;10.60;;;;;;;7.38;49.30;100983.53;107301;1266;59511;-68
2024/02/29 05:59:38;;;;;;;25.10;10.10;;;;;;;7.82;48.39;100984.27;107346;1267;57877;-67
2024/02/29 06:02:05;;;;;;;26.40;9.50;;;;;;;8.13;47.29;100978.13;107295;1266;59344;-67
2024/02/29 06:04:33;;;;;;;19.60;8.70;;;;;;;8.06;46.93;100980.30;107501;1263;70423;-67
2024/02/29 06:06:59;;;;;;;21.30;10.20;;;;;;;8.07;47.04;100976.79;107310;1264;159926;-67
2024/02/29 06:09:26;;;;;;;18.70;8.20;;;;;;;8.48;46.17;100985.17;107532;1261;61177;-67
2024/02/29 06:11:53;;;;;;;22.10;9.60;;;;;;;8.88;45.48;100985.80;107515;1261;60148;-67
2024/02/29 06:14:24;;;;;;;26.90;10.60;;;;;;;9.45;44.20;100989.00;107594;1260;71909;-68
2024/02/29 06:16:50;;;;;;;;;;;;;;;10.09;42.91;100987.55;107481;1263;70325;-67
2024/02/29 06:19:17;;;;;;;25.80;10.30;;;;;;;10.28;42.20;100987.86;107830;1257;72948;-67
2024/02/29 06:21:44;;;;;;;28.40;10.20;;;;;;;10.71;41.53;100993.57;107816;1259;61097;-68
2024/02/29 06:24:10;;;;;;;26.50;10.70;;;;;;;10.92;40.80;100996.23;107765;1257;60357;-67
2024/02/29 06:26:37;;;;;;;31.30;11.10;;;;;;;10.93;40.29;100995.33;107753;1257;71579;-67
2024/02/29 06:29:05;;;;;;;31.10;11.20;;;;;;;11.04;39.98;100991.88;107759;1257;70078;-67
2024/02/29 06:31:32;;;;;;;20.40;10.00;;;;;;;11.20;39.96;100994.45;107787;1257;72718;-67
2024/02/29 06:33:59;;;;;;;29.20;10.00;;;;;;;11.32;39.47;101000.48;107800;1257;59999;-68
2024/02/29 06:36:26;;;;;;;25.80;9.70;;;;;;;11.43;39.05;101004.23;107821;1257;59489;-68
2024/02/29 06:38:52;;;;;;;28.80;10.10;;;;;;;11.45;38.88;101007.52;107815;1261;73126;-67
2024/02/29 06:41:19;;;;;;;25.70;9.50;;;;;;;11.75;38.62;101000.55;107766;1257;70591;-64
2024/02/29 06:43:46;;;;;;;27.40;9.70;;;;;;;11.79;38.33;101001.34;107768;1258;73551;-65
2024/02/29 06:46:12;;;;;;;31.30;10.30;;;;;;;11.89;38.33;100995.41;107865;1257;59741;-65
2024/02/29 06:48:39;;;;;;;22.90;8.90;;;;;;;12.10;37.99;100989.54;107800;1257;60397;-64
2024/02/29 06:51:06;;;;;;;22.60;7.80;;;;;;;12.50;37.74;100986.21;107896;1257;72923;-68
2024/02/29 06:53:33;;;;;;;25.00;8.30;;;;;;;12.89;36.76;100985.15;107697;1257;71338;-67
2024/02/29 06:56:00;;;;;;;18.40;8.10;;;;;;;13.37;36.37;100987.08;107888;1257;72494;-67
2024/02/29 06:58:27;;;;;;;24.40;8.10;;;;;;;13.73;35.32;100988.08;107809;1257;61079;-68
2024/02/29 07:00:54;;;;;;;24.70;8.10;;;;;;;13.97;34.75;100991.27;108218;1254;59379;-69
2024/02/29 07:03:22;;;;;;;23.10;7.90;;;;;;;13.92;34.72;100991.95;108205;1253;72903;-66
2024/02/29 07:05:49;;;;;;;23.70;7.60;;;;;;;13.61;34.96;100990.83;108255;1254;69247;-68
2024/02/29 07:08:16;;;;;;;21.00;7.20;;;;;;;13.48;34.94;100996.94;108200;1254;72281;-69
2024/02/29 07:10:43;;;;;;;22.90;6.60;;;;;;;13.05;35.55;100987.24;108283;1254;59522;-68
2024/02/29 07:13:10;;;;;;;18.20;7.20;;;;;;;12.67;36.13;100991.50;108152;1254;60020;-69
2024/02/29 07:15:37;;;;;;;28.50;8.10;;;;;;;12.53;36.50;100990.71;108150;1254;71965;-67
2024/02/29 07:18:04;;;;;;;13.70;6.90;;;;;;;12.61;36.55;100990.29;108167;1254;70201;-68
2024/02/29 07:20:31;;;;;;;19.70;7.50;;;;;;;12.53;36.25;100988.94;108131;1254;72741;-67
2024/02/29 07:23:00;;;;;;;18.80;7.50;;;;;;;12.23;36.73;100981.95;108169;1253;60295;-67
2024/02/29 07:25:27;;;;;;;18.90;7.00;;;;;;;12.12;37.09;100981.05;108171;1254;59424;-67
2024/02/29 07:27:55;;;;;;;18.50;8.00;;;;;;;12.05;37.28;100983.00;108166;1254;71542;-67
2024/02/29 07:30:21;;;;;;;26.50;8.20;;;;;;;12.19;37.46;100982.07;108085;1254;70454;-67
2024/02/29 07:32:48;;;;;;;19.60;7.40;;;;;;;12.40;37.22;100980.89;108154;1253;72756;-67
2024/02/29 07:35:17;;;;;;;19.00;7.40;;;;;;;12.50;37.33;100979.71;108051;1256;59730;-67
2024/02/29 07:37:44;;;;;;;21.00;8.00;;;;;;;12.90;36.81;100979.31;108134;1255;61359;-67
2024/02/29 07:40:11;;;;;;;17.90;7.60;;;;;;;13.55;36.14;100979.73;108138;1254;71938;-68
2024/02/29 07:42:40;;;;;;;21.50;7.40;;;;;;;14.02;34.91;100978.70;108066;1258;70347;-67
2024/02/29 07:45:08;;;;;;;23.20;7.00;;;;;;;13.96;34.68;100979.64;108117;1254;72702;-67
2024/02/29 07:47:35;;;;;;;28.20;7.80;;;;;;;14.32;34.48;100977.20;108021;1255;60347;-67
2024/02/29 07:50:05;;;;;;;25.30;8.20;;;;;;;14.65;34.27;100976.99;108083;1254;60230;-68
2024/02/29 07:52:32;;;;;;;24.70;7.80;;;;;;;15.20;33.56;100981.60;107880;1257;73106;-69
2024/02/29 07:54:59;;;;;;;26.80;8.40;;;;;;;15.57;32.87;100981.61;108048;1257;71690;-68
2024/02/29 07:57:26;;;;;;;30.90;7.90;;;;;;;16.06;32.49;100976.41;108061;1255;72738;-69
2024/02/29 07:59:53;;;;;;;25.30;8.60;;;;;;;16.41;31.98;100971.77;108063;1254;60338;-69
2024/02/29 08:02:19;;;;;;;18.70;8.10;;;;;;;16.59;31.65;100968.39;108103;1257;59523;-68
2024/02/29 08:04:50;;;;;;;;;;;;;;;16.85;30.99;100971.73;108055;1255;72976;-68
2024/02/29 08:07:17;;;;;;;31.10;11.50;;;;;;;16.70;30.95;100971.05;108104;1255;70429;-68
2024/02/29 08:09:44;;;;;;;20.60;7.20;;;;;;;16.69;31.23;100974.48;108076;1254;73182;-69
2024/02/29 08:12:11;;;;;;;31.80;8.10;;;;;;;16.82;31.09;100977.59;108084;1259;59513;-69
2024/02/29 08:14:38;;;;;;;25.40;7.90;;;;;;;17.19;31.10;100978.39;108138;1255;60242;-69
2024/02/29 08:17:04;;;;;;;19.90;7.90;;;;;;;17.70;30.40;100982.34;108134;1254;70655;-68
2024/02/29 08:19:31;;;;;;;17.20;8.30;;;;;;;18.01;29.80;100982.63;108016;1254;70230;-69
2024/02/29 08:21:58;;;;;;;20.00;7.50;;;;;;;18.25;29.64;100977.41;108070;1259;72490;-66
2024/02/29 08:24:25;;;;;;;18.60;7.70;;;;;;;18.44;29.28;100976.52;108066;1257;61557;-68
2024/02/29 08:26:52;;;;;;;21.30;7.50;;;;;;;18.66;28.96;100979.34;108100;1259;59568;-66
2024/02/29 08:29:19;;;;;;;13.20;5.50;;;;;;;18.93;28.60;100974.44;108019;1255;72934;-69
2024/02/29 08:31:46;;;;;;;21.70;7.50;;;;;;;18.94;28.31;100977.42;108059;1254;70344;-69
2024/02/29 08:34:13;;;;;;;15.00;6.10;;;;;;;18.88;28.48;100977.94;108008;1254;71157;-67
2024/02/29 08:36:40;;;;;;;16.30;6.60;;;;;;;18.98;28.48;100974.48;108032;1257;60465;-70
2024/02/29 08:39:07;;;;;;;18.20;6.30;;;;;;;19.16;28.58;100969.75;108080;1254;59395;-69
2024/02/29 08:41:33;;;;;;;15.50;7.00;;;;;;;19.43;28.01;100971.64;108040;1259;72694;-70
2024/02/29 08:44:00;;;;;;;24.60;7.00;;;;;;;19.69;27.78;100964.77;108106;1259;70240;-69
2024/02/29 08:46:27;;;;;;;23.10;8.00;;;;;;;19.76;27.41;100966.14;108054;1254;71751;-68
2024/02/29 08:48:55;;;;;;;22.00;7.10;;;;;;;19.85;27.58;100961.06;108040;1254;61572;-69
2024/02/29 08:51:21;;;;;;;21.80;6.60;;;;;;;20.01;27.28;100956.02;107984;1253;60284;-70
2024/02/29 08:53:48;;;;;;;20.20;6.90;;;;;;;19.77;27.23;100957.47;107991;1253;73182;-68
2024/02/29 08:56:15;;;;;;;21.70;6.60;;;;;;;19.69;27.39;100956.38;108097;1254;69206;-69
2024/02/29 08:58:43;;;;;;;26.60;7.60;;;;;;;19.98;27.73;100955.98;108048;1254;71227;-69
2024/02/29 09:01:09;;;;;;;19.40;6.30;;;;;;;20.43;26.93;100956.86;108054;1254;61587;-67
2024/02/29 09:03:36;;;;;;;24.40;6.80;;;;;;;20.84;26.44;100955.42;108071;1254;60570;-69
2024/02/29 09:06:03;;;;;;;27.80;6.30;;;;;;;21.06;26.24;100953.45;108124;1254;72003;-69
2024/02/29 09:08:30;;;;;;;24.50;6.30;;;;;;;21.20;25.73;100956.05;108031;1256;71451;-69
2024/02/29 09:10:57;;;;;;;20.90;5.60;;;;;;;21.22;25.78;100951.08;108048;1254;73234;-69
2024/02/29 09:13:24;;;;;;;23.60;6.50;;;;;;;21.06;26.01;100951.30;108099;1254;60611;-68
2024/02/29 09:16:02;;;;;;;27.80;7.10;;;;;;;21.39;25.92;100953.15;108064;1258;59438;-70
2024/02/29 09:18:29;;;;;;;21.50;6.10;;;;;;;21.64;25.49;100946.95;108053;1253;72013;-69
2024/02/29 09:20:56;;;;;;;25.60;7.20;;;;;;;21.88;25.20;100944.38;108024;1254;69258;-68
2024/02/29 09:23:23;;;;;;;21.70;6.40;;;;;;;22.00;25.16;100945.45;108003;1259;71931;-68
2024/02/29 09:25:50;;;;;;;18.30;6.50;;;;;;;22.33;24.82;100944.33;108112;1254;59478;-69
2024/02/29 09:28:17;;;;;;;17.90;5.30;;;;;;;22.51;24.30;100940.13;108062;1259;60350;-69
2024/02/29 09:30:45;;;;;;;19.70;6.90;;;;;;;22.23;24.59;100942.05;107932;1256;72846;-68
2024/02/29 09:33:11;;;;;;;25.50;6.90;;;;;;;22.18;24.60;100939.73;107965;1254;70449;-69
2024/02/29 09:35:38;;;;;;;25.40;7.10;;;;;;;21.96;24.81;100942.20;108190;1253;71756;-69
2024/02/29 09:38:05;;;;;;;18.20;7.00;;;;;;;21.96;25.07;100942.35;108134;1256;60635;-69
2024/02/29 09:40:31;;;;;;;19.70;6.00;;;;;;;21.97;24.86;100947.29;108142;1253;59342;-69
2024/02/29 09:43:12;;;;;;;21.80;6.30;;;;;;;21.47;24.90;100955.24;108218;1254;72763;-69
2024/02/29 09:45:38;;;;;;;22.60;6.20;;;;;;;20.40;25.78;100957.09;108049;1254;69280;-69
2024/02/29 09:48:06;;;;;;;20.30;6.60;;;;;;;20.31;26.29;100952.79;107948;1253;72037;-69
2024/02/29 09:50:33;;;;;;;22.70;6.60;;;;;;;20.48;26.28;100946.70;108036;1253;60189;-69
2024/02/29 09:52:59;;;;;;;19.70;6.10;;;;;;;20.43;26.21;100947.44;108221;1254;59129;-68
2024/02/29 09:55:27;;;;;;;22.10;6.20;;;;;;;20.61;26.05;100945.40;107942;1260;73408;-69
2024/02/29 09:57:54;;;;;;;24.80;6.00;;;;;;;20.77;26.15;100945.91;108046;1254;69121;-69
2024/02/29 10:00:21;;;;;;;25.00;6.60;;;;;;;21.11;25.50;100949.71;108270;1254;72647;-69
2024/02/29 10:02:48;;;;;;;27.50;6.30;;;;;;;21.41;25.75;100947.27;107996;1253;60394;-69
2024/02/29 10:05:19;;;;;;;27.10;6.50;;;;;;;21.72;25.21;100945.29;107932;1254;60397;-69
2024/02/29 10:07:47;;;;;;;19.30;6.00;;;;;;;21.91;24.95;100940.40;108187;1254;73111;-69
2024/02/29 10:10:15;;;;;;;15.60;6.40;;;;;;;21.97;25.05;100938.16;108164;1253;68969;-69
2024/02/29 10:12:43;;;;;;;23.00;6.50;;;;;;;22.24;24.61;100944.30;108276;1254;72924;-68
2024/02/29 10:15:10;;;;;;;21.90;6.60;;;;;;;22.11;24.36;100945.94;108207;1254;60339;-69
2024/02/29 10:17:38;;;;;;;25.50;7.20;;;;;;;21.31;25.18;100947.66;108228;1254;60345;-71
2024/02/29 10:20:11;;;;;;;27.10;7.50;;;;;;;21.08;25.58;100950.62;108064;1254;74936;-69
2024/02/29 10:22:44;;;;;;;27.00;7.90;;;;;;;20.83;25.71;100947.66;108249;1254;70500;-69
2024/02/29 10:25:15;;;;;;;33.10;7.10;;;;;;;20.87;25.77;100944.38;108239;1256;72916;-68
2024/02/29 10:27:42;;;;;;;22.70;7.70;;;;;;;20.78;25.80;100941.38;108213;1253;60317;-68
2024/02/29 10:30:16;;;;;;;15.50;6.90;;;;;;;20.61;26.05;100935.92;108172;1255;60416;-70
2024/02/29 10:32:43;;;;;;;17.10;6.90;;;;;;;20.76;25.88;100937.97;108192;1255;73776;-69
2024/02/29 10:35:19;;;;;;;29.70;7.20;;;;;;;21.18;25.51;100930.64;108292;1257;69122;-69
2024/02/29 10:37:53;;;;;;;26.80;6.70;;;;;;;21.36;25.25;100929.02;108173;1254;72296;-69
2024/02/29 10:40:21;;;;;;;19.40;6.60;;;;;;;21.51;25.16;100923.39;108217;1254;61019;-69
2024/02/29 10:42:54;;;;;;;22.90;7.30;;;;;;;21.74;24.99;100920.18;108300;1254;60262;-69
2024/02/29 10:45:25;;;;;;;24.40;7.00;;;;;;;21.85;24.96;100914.02;108195;1254;72741;-69
2024/02/29 10:48:30;;;;;;;25.30;6.80;;;;;;;21.88;24.82;100914.31;108156;1254;70642;-70
2024/02/29 10:51:23;;;;;;;23.20;6.40;;;;;;;21.95;25.07;100914.20;108181;1254;73338;-68
2024/02/29 10:54:14;;;;;;;29.40;7.30;;;;;;;21.90;24.87;100911.34;108124;1257;61440;-69
2024/02/29 10:56:42;;;;;;;25.70;7.10;;;;;;;21.82;24.92;100908.51;108183;1256;60163;-69
2024/02/29 10:59:12;;;;;;;14.10;6.40;;;;;;;21.69;24.73;100916.41;108102;1254;72448;-70
2024/02/29 11:01:39;;;;;;;20.10;6.20;;;;;;;21.65;24.93;100914.92;107965;1259;70588;-67
2024/02/29 11:04:06;;;;;;;27.50;7.40;;;;;;;21.51;24.72;100913.92;108144;1257;72420;-68
2024/02/29 11:06:38;;;;;;;24.50;5.80;;;;;;;21.61;25.09;100908.20;108164;1255;60495;-69
2024/02/29 11:09:08;;;;;;;18.50;5.80;;;;;;;21.79;24.54;100904.21;108176;1253;60896;-69
2024/02/29 11:11:35;;;;;;;17.20;6.10;;;;;;;21.50;24.74;100908.27;108224;1256;73578;-69
2024/02/29 11:14:05;;;;;;;21.20;6.30;;;;;;;21.35;24.94;100906.81;107992;1255;70355;-69